sensor_id;sensor_type;location;lat;lon;timestamp;temperature;humidity
20171;DHT22;10245;51.344;6.620;2023-04-02T00:01:15;7.40;94.70
20171;DHT22;10245;51.344;6.620;2023-04-02T00:04:13;7.30;94.70
20171;DHT22;10245;51.344;6.620;2023-04-02T00:06:42;7.20;94.70
20171;DHT22;10245;51.344;6.620;2023-04-02T00:09:25;7.20;94.60
20171;DHT22;10245;51.344;6.620;2023-04-02T00:11:52;7.30;94.70
20171;DHT22;10245;51.344;6.620;2023-04-02T00:14:22;7.30;94.70
20171;DHT22;10245;51.344;6.620;2023-04-02T00:16:47;7.20;94.70
20171;DHT22;10245;51.344;6.620;2023-04-02T00:19:14;7.30;94.80
20171;DHT22;10245;51.344;6.620;2023-04-02T00:21:40;7.20;94.70
20171;DHT22;10245;51.344;6.620;2023-04-02T00:24:13;7.20;94.80
20171;DHT22;10245;51.344;6.620;2023-04-02T00:26:43;7.20;94.80
20171;DHT22;10245;51.344;6.620;2023-04-02T00:29:11;7.10;94.60
20171;DHT22;10245;51.344;6.620;2023-04-02T00:31:37;7.10;94.70
20171;DHT22;10245;51.344;6.620;2023-04-02T00:34:05;7.00;94.70
20171;DHT22;10245;51.344;6.620;2023-04-02T00:36:33;7.00;94.80
20171;DHT22;10245;51.344;6.620;2023-04-02T00:38:58;7.00;94.70
20171;DHT22;10245;51.344;6.620;2023-04-02T00:41:26;6.90;94.70
20171;DHT22;10245;51.344;6.620;2023-04-02T00:43:52;6.80;94.70
20171;DHT22;10245;51.344;6.620;2023-04-02T00:46:20;6.80;94.70
20171;DHT22;10245;51.344;6.620;2023-04-02T00:48:51;6.90;94.80
20171;DHT22;10245;51.344;6.620;2023-04-02T00:51:19;6.80;94.80
20171;DHT22;10245;51.344;6.620;2023-04-02T00:53:47;6.80;94.80
20171;DHT22;10245;51.344;6.620;2023-04-02T00:56:15;6.80;94.80
20171;DHT22;10245;51.344;6.620;2023-04-02T00:58:41;6.70;94.80
20171;DHT22;10245;51.344;6.620;2023-04-02T01:01:15;6.70;94.90
20171;DHT22;10245;51.344;6.620;2023-04-02T01:03:40;6.70;94.80
20171;DHT22;10245;51.344;6.620;2023-04-02T01:06:06;6.70;94.90
20171;DHT22;10245;51.344;6.620;2023-04-02T01:08:43;6.80;94.90
20171;DHT22;10245;51.344;6.620;2023-04-02T01:11:31;6.80;95.00
20171;DHT22;10245;51.344;6.620;2023-04-02T01:14:03;6.70;94.90
20171;DHT22;10245;51.344;6.620;2023-04-02T01:16:39;6.70;95.00
20171;DHT22;10245;51.344;6.620;2023-04-02T01:19:20;6.70;95.00
20171;DHT22;10245;51.344;6.620;2023-04-02T01:21:58;6.50;95.00
20171;DHT22;10245;51.344;6.620;2023-04-02T01:24:25;6.50;94.90
20171;DHT22;10245;51.344;6.620;2023-04-02T01:26:54;6.50;94.80
20171;DHT22;10245;51.344;6.620;2023-04-02T01:29:23;6.50;94.80
20171;DHT22;10245;51.344;6.620;2023-04-02T01:31:49;6.50;94.60
20171;DHT22;10245;51.344;6.620;2023-04-02T01:34:15;6.50;94.60
20171;DHT22;10245;51.344;6.620;2023-04-02T01:36:47;6.50;94.30
20171;DHT22;10245;51.344;6.620;2023-04-02T01:39:25;6.50;94.10
20171;DHT22;10245;51.344;6.620;2023-04-02T01:42:00;6.40;93.70
20171;DHT22;10245;51.344;6.620;2023-04-02T01:44:30;6.40;93.30
20171;DHT22;10245;51.344;6.620;2023-04-02T01:46:57;6.40;93.10
20171;DHT22;10245;51.344;6.620;2023-04-02T01:49:24;6.40;92.90
20171;DHT22;10245;51.344;6.620;2023-04-02T01:51:51;6.40;92.90
20171;DHT22;10245;51.344;6.620;2023-04-02T01:54:19;6.40;92.90
20171;DHT22;10245;51.344;6.620;2023-04-02T01:56:44;6.40;92.80
20171;DHT22;10245;51.344;6.620;2023-04-02T01:59:09;6.40;92.90
20171;DHT22;10245;51.344;6.620;2023-04-02T02:01:40;6.50;93.10
20171;DHT22;10245;51.344;6.620;2023-04-02T02:04:05;6.50;93.30
20171;DHT22;10245;51.344;6.620;2023-04-02T02:06:30;6.50;93.40
20171;DHT22;10245;51.344;6.620;2023-04-02T02:08:56;6.50;93.40
20171;DHT22;10245;51.344;6.620;2023-04-02T02:11:24;6.30;93.30
20171;DHT22;10245;51.344;6.620;2023-04-02T02:13:53;6.30;93.30
20171;DHT22;10245;51.344;6.620;2023-04-02T02:16:19;6.20;93.20
20171;DHT22;10245;51.344;6.620;2023-04-02T02:18:47;6.10;93.10
20171;DHT22;10245;51.344;6.620;2023-04-02T02:21:17;6.20;93.10
20171;DHT22;10245;51.344;6.620;2023-04-02T02:23:45;6.10;93.10
20171;DHT22;10245;51.344;6.620;2023-04-02T02:26:11;6.10;93.00
20171;DHT22;10245;51.344;6.620;2023-04-02T02:28:39;6.00;92.70
20171;DHT22;10245;51.344;6.620;2023-04-02T02:31:06;6.00;92.40
20171;DHT22;10245;51.344;6.620;2023-04-02T02:33:38;6.00;92.30
20171;DHT22;10245;51.344;6.620;2023-04-02T02:36:11;6.00;92.30
20171;DHT22;10245;51.344;6.620;2023-04-02T02:38:46;6.00;92.10
20171;DHT22;10245;51.344;6.620;2023-04-02T02:41:27;6.00;92.30
20171;DHT22;10245;51.344;6.620;2023-04-02T02:43:59;6.00;92.30
20171;DHT22;10245;51.344;6.620;2023-04-02T02:46:26;6.00;92.30
20171;DHT22;10245;51.344;6.620;2023-04-02T02:48:52;6.00;92.40
20171;DHT22;10245;51.344;6.620;2023-04-02T02:51:22;6.00;92.10
20171;DHT22;10245;51.344;6.620;2023-04-02T02:53:51;6.00;91.70
20171;DHT22;10245;51.344;6.620;2023-04-02T02:56:16;6.00;92.10
20171;DHT22;10245;51.344;6.620;2023-04-02T02:58:41;6.00;92.20
20171;DHT22;10245;51.344;6.620;2023-04-02T03:01:17;6.00;92.30
20171;DHT22;10245;51.344;6.620;2023-04-02T03:03:43;6.00;92.50
20171;DHT22;10245;51.344;6.620;2023-04-02T03:06:10;6.00;92.70
20171;DHT22;10245;51.344;6.620;2023-04-02T03:08:44;6.00;92.60
20171;DHT22;10245;51.344;6.620;2023-04-02T03:11:20;6.00;92.80
20171;DHT22;10245;51.344;6.620;2023-04-02T03:13:50;5.90;92.90
20171;DHT22;10245;51.344;6.620;2023-04-02T03:16:19;5.80;92.80
20171;DHT22;10245;51.344;6.620;2023-04-02T03:18:50;5.80;92.70
20171;DHT22;10245;51.344;6.620;2023-04-02T03:21:23;5.80;92.70
20171;DHT22;10245;51.344;6.620;2023-04-02T03:23:55;5.90;92.50
20171;DHT22;10245;51.344;6.620;2023-04-02T03:26:23;5.80;92.20
20171;DHT22;10245;51.344;6.620;2023-04-02T03:28:54;5.80;91.70
20171;DHT22;10245;51.344;6.620;2023-04-02T03:31:24;5.80;91.80
20171;DHT22;10245;51.344;6.620;2023-04-02T03:33:55;5.90;91.70
20171;DHT22;10245;51.344;6.620;2023-04-02T03:36:26;5.80;91.70
20171;DHT22;10245;51.344;6.620;2023-04-02T03:39:00;5.80;92.00
20171;DHT22;10245;51.344;6.620;2023-04-02T03:41:32;5.80;91.90
20171;DHT22;10245;51.344;6.620;2023-04-02T03:44:05;5.90;92.00
20171;DHT22;10245;51.344;6.620;2023-04-02T03:46:40;5.70;91.70
20171;DHT22;10245;51.344;6.620;2023-04-02T03:49:10;5.80;91.30
20171;DHT22;10245;51.344;6.620;2023-04-02T03:51:39;5.70;91.40
20171;DHT22;10245;51.344;6.620;2023-04-02T03:54:14;5.70;91.60
20171;DHT22;10245;51.344;6.620;2023-04-02T03:56:39;5.60;91.50
20171;DHT22;10245;51.344;6.620;2023-04-02T03:59:15;5.50;91.40
20171;DHT22;10245;51.344;6.620;2023-04-02T04:01:46;5.50;91.40
20171;DHT22;10245;51.344;6.620;2023-04-02T04:04:15;5.60;91.60
20171;DHT22;10245;51.344;6.620;2023-04-02T04:06:41;5.50;91.40
20171;DHT22;10245;51.344;6.620;2023-04-02T04:09:08;5.50;91.00
20171;DHT22;10245;51.344;6.620;2023-04-02T04:11:43;5.50;90.90
20171;DHT22;10245;51.344;6.620;2023-04-02T04:14:12;5.50;91.00
20171;DHT22;10245;51.344;6.620;2023-04-02T04:16:41;5.50;90.70
20171;DHT22;10245;51.344;6.620;2023-04-02T04:19:15;5.50;90.80
20171;DHT22;10245;51.344;6.620;2023-04-02T04:21:43;5.50;90.90
20171;DHT22;10245;51.344;6.620;2023-04-02T04:24:22;5.50;90.70
20171;DHT22;10245;51.344;6.620;2023-04-02T04:26:53;5.50;90.60
20171;DHT22;10245;51.344;6.620;2023-04-02T04:29:32;5.50;90.40
20171;DHT22;10245;51.344;6.620;2023-04-02T04:32:15;5.50;90.50
20171;DHT22;10245;51.344;6.620;2023-04-02T04:34:55;5.50;90.70
20171;DHT22;10245;51.344;6.620;2023-04-02T04:37:25;5.50;90.90
20171;DHT22;10245;51.344;6.620;2023-04-02T04:40:00;5.50;90.80
20171;DHT22;10245;51.344;6.620;2023-04-02T04:42:32;5.50;91.00
20171;DHT22;10245;51.344;6.620;2023-04-02T04:45:05;5.50;91.30
20171;DHT22;10245;51.344;6.620;2023-04-02T04:47:37;5.50;91.70
20171;DHT22;10245;51.344;6.620;2023-04-02T04:50:06;5.40;92.10
20171;DHT22;10245;51.344;6.620;2023-04-02T04:52:36;5.40;92.40
20171;DHT22;10245;51.344;6.620;2023-04-02T04:55:14;5.30;92.70
20171;DHT22;10245;51.344;6.620;2023-04-02T04:57:47;5.30;92.70
20171;DHT22;10245;51.344;6.620;2023-04-02T05:00:14;5.30;92.60
20171;DHT22;10245;51.344;6.620;2023-04-02T05:02:45;5.30;92.60
20171;DHT22;10245;51.344;6.620;2023-04-02T05:05:20;5.20;92.40
20171;DHT22;10245;51.344;6.620;2023-04-02T05:07:50;5.30;92.40
20171;DHT22;10245;51.344;6.620;2023-04-02T05:10:19;5.20;92.20
20171;DHT22;10245;51.344;6.620;2023-04-02T05:12:50;5.10;92.20
20171;DHT22;10245;51.344;6.620;2023-04-02T05:15:21;5.10;92.00
20171;DHT22;10245;51.344;6.620;2023-04-02T05:17:54;5.00;91.90
20171;DHT22;10245;51.344;6.620;2023-04-02T05:20:26;5.10;92.00
20171;DHT22;10245;51.344;6.620;2023-04-02T05:22:56;5.00;91.90
20171;DHT22;10245;51.344;6.620;2023-04-02T05:25:26;5.00;91.90
20171;DHT22;10245;51.344;6.620;2023-04-02T05:27:57;4.90;91.80
20171;DHT22;10245;51.344;6.620;2023-04-02T05:30:43;5.00;91.70
20171;DHT22;10245;51.344;6.620;2023-04-02T05:33:22;4.90;91.70
20171;DHT22;10245;51.344;6.620;2023-04-02T05:35:52;5.00;91.80
20171;DHT22;10245;51.344;6.620;2023-04-02T05:38:21;5.00;91.80
20171;DHT22;10245;51.344;6.620;2023-04-02T05:40:51;5.00;91.80
20171;DHT22;10245;51.344;6.620;2023-04-02T05:43:23;4.80;91.40
20171;DHT22;10245;51.344;6.620;2023-04-02T05:45:52;5.00;91.50
20171;DHT22;10245;51.344;6.620;2023-04-02T05:48:19;5.00;91.60
20171;DHT22;10245;51.344;6.620;2023-04-02T05:50:47;4.90;91.50
20171;DHT22;10245;51.344;6.620;2023-04-02T05:53:20;4.90;91.50
20171;DHT22;10245;51.344;6.620;2023-04-02T05:55:55;4.90;91.30
20171;DHT22;10245;51.344;6.620;2023-04-02T05:58:27;5.00;91.40
20171;DHT22;10245;51.344;6.620;2023-04-02T06:01:28;5.00;91.30
20171;DHT22;10245;51.344;6.620;2023-04-02T06:04:06;5.00;91.30
20171;DHT22;10245;51.344;6.620;2023-04-02T06:06:57;5.00;91.30
20171;DHT22;10245;51.344;6.620;2023-04-02T06:09:33;4.80;90.90
20171;DHT22;10245;51.344;6.620;2023-04-02T06:12:10;4.90;91.00
20171;DHT22;10245;51.344;6.620;2023-04-02T06:14:37;5.00;91.30
20171;DHT22;10245;51.344;6.620;2023-04-02T06:17:02;4.90;91.40
20171;DHT22;10245;51.344;6.620;2023-04-02T06:19:30;4.80;91.30
20171;DHT22;10245;51.344;6.620;2023-04-02T06:21:59;4.80;91.20
20171;DHT22;10245;51.344;6.620;2023-04-02T06:24:31;4.80;91.10
20171;DHT22;10245;51.344;6.620;2023-04-02T06:27:03;4.80;90.80
20171;DHT22;10245;51.344;6.620;2023-04-02T06:29:31;4.70;90.40
20171;DHT22;10245;51.344;6.620;2023-04-02T06:32:04;4.60;90.40
20171;DHT22;10245;51.344;6.620;2023-04-02T06:34:36;4.60;90.60
20171;DHT22;10245;51.344;6.620;2023-04-02T06:37:13;4.60;90.30
20171;DHT22;10245;51.344;6.620;2023-04-02T06:39:41;4.60;90.30
20171;DHT22;10245;51.344;6.620;2023-04-02T06:42:12;4.60;90.20
20171;DHT22;10245;51.344;6.620;2023-04-02T06:44:55;4.60;89.90
20171;DHT22;10245;51.344;6.620;2023-04-02T06:47:44;4.60;89.90
20171;DHT22;10245;51.344;6.620;2023-04-02T06:50:19;4.70;89.80
20171;DHT22;10245;51.344;6.620;2023-04-02T06:52:49;4.70;89.80
20171;DHT22;10245;51.344;6.620;2023-04-02T06:55:30;4.70;89.50
20171;DHT22;10245;51.344;6.620;2023-04-02T06:57:56;4.70;89.50
20171;DHT22;10245;51.344;6.620;2023-04-02T07:00:25;4.70;89.30
20171;DHT22;10245;51.344;6.620;2023-04-02T07:02:54;4.70;89.10
20171;DHT22;10245;51.344;6.620;2023-04-02T07:05:18;4.70;89.10
20171;DHT22;10245;51.344;6.620;2023-04-02T07:07:42;4.70;88.90
20171;DHT22;10245;51.344;6.620;2023-04-02T07:10:07;4.70;89.20
20171;DHT22;10245;51.344;6.620;2023-04-02T07:12:31;4.70;88.80
20171;DHT22;10245;51.344;6.620;2023-04-02T07:14:56;4.70;88.90
20171;DHT22;10245;51.344;6.620;2023-04-02T07:17:20;4.80;89.20
20171;DHT22;10245;51.344;6.620;2023-04-02T07:19:43;4.80;88.90
20171;DHT22;10245;51.344;6.620;2023-04-02T07:22:12;4.80;88.80
20171;DHT22;10245;51.344;6.620;2023-04-02T07:24:37;4.70;87.80
20171;DHT22;10245;51.344;6.620;2023-04-02T07:27:00;4.70;87.90
20171;DHT22;10245;51.344;6.620;2023-04-02T07:29:24;4.70;88.20
20171;DHT22;10245;51.344;6.620;2023-04-02T07:31:48;4.70;87.80
20171;DHT22;10245;51.344;6.620;2023-04-02T07:34:13;4.80;87.40
20171;DHT22;10245;51.344;6.620;2023-04-02T07:36:37;4.80;87.10
20171;DHT22;10245;51.344;6.620;2023-04-02T07:39:00;4.80;87.60
20171;DHT22;10245;51.344;6.620;2023-04-02T07:41:24;4.80;87.50
20171;DHT22;10245;51.344;6.620;2023-04-02T07:43:48;4.70;87.70
20171;DHT22;10245;51.344;6.620;2023-04-02T07:46:12;4.80;87.90
20171;DHT22;10245;51.344;6.620;2023-04-02T07:48:39;4.70;87.50
20171;DHT22;10245;51.344;6.620;2023-04-02T07:51:03;4.70;87.20
20171;DHT22;10245;51.344;6.620;2023-04-02T07:53:29;4.70;87.20
20171;DHT22;10245;51.344;6.620;2023-04-02T07:55:54;4.70;87.30
20171;DHT22;10245;51.344;6.620;2023-04-02T07:58:18;4.60;86.50
20171;DHT22;10245;51.344;6.620;2023-04-02T08:00:41;4.70;86.90
20171;DHT22;10245;51.344;6.620;2023-04-02T08:03:04;4.80;86.90
20171;DHT22;10245;51.344;6.620;2023-04-02T08:05:29;4.70;86.00
20171;DHT22;10245;51.344;6.620;2023-04-02T08:07:53;4.80;86.20
20171;DHT22;10245;51.344;6.620;2023-04-02T08:10:18;4.80;86.10
20171;DHT22;10245;51.344;6.620;2023-04-02T08:12:41;4.80;85.70
20171;DHT22;10245;51.344;6.620;2023-04-02T08:15:06;4.90;86.40
20171;DHT22;10245;51.344;6.620;2023-04-02T08:17:29;4.90;86.40
20171;DHT22;10245;51.344;6.620;2023-04-02T08:19:54;5.00;86.10
20171;DHT22;10245;51.344;6.620;2023-04-02T08:22:23;5.00;86.30
20171;DHT22;10245;51.344;6.620;2023-04-02T08:24:48;5.00;86.20
20171;DHT22;10245;51.344;6.620;2023-04-02T08:27:12;5.00;86.30
20171;DHT22;10245;51.344;6.620;2023-04-02T08:29:36;5.00;86.10
20171;DHT22;10245;51.344;6.620;2023-04-02T08:31:59;5.10;86.30
20171;DHT22;10245;51.344;6.620;2023-04-02T08:34:23;5.00;85.30
20171;DHT22;10245;51.344;6.620;2023-04-02T08:36:47;5.10;86.20
20171;DHT22;10245;51.344;6.620;2023-04-02T08:39:12;5.00;85.60
20171;DHT22;10245;51.344;6.620;2023-04-02T08:41:37;5.10;85.90
20171;DHT22;10245;51.344;6.620;2023-04-02T08:47:05;5.00;85.20
20171;DHT22;10245;51.344;6.620;2023-04-02T08:49:35;4.90;84.20
20171;DHT22;10245;51.344;6.620;2023-04-02T08:52:01;5.00;84.50
20171;DHT22;10245;51.344;6.620;2023-04-02T08:54:28;5.00;84.20
20171;DHT22;10245;51.344;6.620;2023-04-02T08:56:55;5.10;84.30
20171;DHT22;10245;51.344;6.620;2023-04-02T08:59:28;5.00;84.00
20171;DHT22;10245;51.344;6.620;2023-04-02T09:01:58;5.00;84.10
20171;DHT22;10245;51.344;6.620;2023-04-02T09:04:28;5.10;84.00
20171;DHT22;10245;51.344;6.620;2023-04-02T09:06:54;5.10;83.80
20171;DHT22;10245;51.344;6.620;2023-04-02T09:09:19;5.20;83.80
20171;DHT22;10245;51.344;6.620;2023-04-02T09:11:50;5.40;84.60
20171;DHT22;10245;51.344;6.620;2023-04-02T09:14:17;5.40;83.50
20171;DHT22;10245;51.344;6.620;2023-04-02T09:16:44;5.50;82.90
20171;DHT22;10245;51.344;6.620;2023-04-02T09:19:18;5.60;82.00
20171;DHT22;10245;51.344;6.620;2023-04-02T09:21:46;5.70;82.00
20171;DHT22;10245;51.344;6.620;2023-04-02T09:24:19;5.70;81.50
20171;DHT22;10245;51.344;6.620;2023-04-02T09:26:42;5.80;82.00
20171;DHT22;10245;51.344;6.620;2023-04-02T09:29:31;5.80;81.70
20171;DHT22;10245;51.344;6.620;2023-04-02T09:32:08;5.80;81.90
20171;DHT22;10245;51.344;6.620;2023-04-02T09:34:38;5.90;82.60
20171;DHT22;10245;51.344;6.620;2023-04-02T09:37:06;6.00;82.20
20171;DHT22;10245;51.344;6.620;2023-04-02T09:39:30;6.00;80.90
20171;DHT22;10245;51.344;6.620;2023-04-02T09:41:54;6.20;81.20
20171;DHT22;10245;51.344;6.620;2023-04-02T09:44:28;6.10;80.60
20171;DHT22;10245;51.344;6.620;2023-04-02T09:46:54;6.20;82.00
20171;DHT22;10245;51.344;6.620;2023-04-02T09:49:23;6.30;80.80
20171;DHT22;10245;51.344;6.620;2023-04-02T09:52:05;6.20;81.30
20171;DHT22;10245;51.344;6.620;2023-04-02T09:54:31;6.10;81.40
20171;DHT22;10245;51.344;6.620;2023-04-02T09:56:59;6.00;80.70
20171;DHT22;10245;51.344;6.620;2023-04-02T09:59:23;6.10;80.80
20171;DHT22;10245;51.344;6.620;2023-04-02T10:01:57;6.00;80.60
20171;DHT22;10245;51.344;6.620;2023-04-02T10:04:35;6.10;80.20
20171;DHT22;10245;51.344;6.620;2023-04-02T10:06:59;6.00;80.10
20171;DHT22;10245;51.344;6.620;2023-04-02T10:09:28;6.00;80.30
20171;DHT22;10245;51.344;6.620;2023-04-02T10:11:54;6.00;79.90
20171;DHT22;10245;51.344;6.620;2023-04-02T10:14:20;6.10;80.10
20171;DHT22;10245;51.344;6.620;2023-04-02T10:16:50;6.10;79.40
20171;DHT22;10245;51.344;6.620;2023-04-02T10:19:21;6.30;80.20
20171;DHT22;10245;51.344;6.620;2023-04-02T10:21:49;6.50;79.00
20171;DHT22;10245;51.344;6.620;2023-04-02T10:24:16;6.50;79.10
20171;DHT22;10245;51.344;6.620;2023-04-02T10:26:56;6.60;78.70
20171;DHT22;10245;51.344;6.620;2023-04-02T10:29:42;6.40;78.80
20171;DHT22;10245;51.344;6.620;2023-04-02T10:32:18;6.50;78.60
20171;DHT22;10245;51.344;6.620;2023-04-02T10:34:48;6.70;78.80
20171;DHT22;10245;51.344;6.620;2023-04-02T10:37:41;6.70;78.80
20171;DHT22;10245;51.344;6.620;2023-04-02T10:40:11;6.90;79.20
20171;DHT22;10245;51.344;6.620;2023-04-02T10:42:40;6.60;77.90
20171;DHT22;10245;51.344;6.620;2023-04-02T10:45:18;6.80;79.20
20171;DHT22;10245;51.344;6.620;2023-04-02T10:47:55;6.50;77.50
20171;DHT22;10245;51.344;6.620;2023-04-02T10:50:30;6.50;78.90
20171;DHT22;10245;51.344;6.620;2023-04-02T10:53:04;6.50;78.80
20171;DHT22;10245;51.344;6.620;2023-04-02T10:55:35;6.50;78.00
20171;DHT22;10245;51.344;6.620;2023-04-02T10:58:06;6.70;79.00
20171;DHT22;10245;51.344;6.620;2023-04-02T11:00:33;6.90;78.80
20171;DHT22;10245;51.344;6.620;2023-04-02T11:03:06;6.90;78.70
20171;DHT22;10245;51.344;6.620;2023-04-02T11:05:40;7.00;79.10
20171;DHT22;10245;51.344;6.620;2023-04-02T11:08:09;6.70;77.40
20171;DHT22;10245;51.344;6.620;2023-04-02T11:10:39;6.50;76.60
20171;DHT22;10245;51.344;6.620;2023-04-02T11:13:14;6.60;78.80
20171;DHT22;10245;51.344;6.620;2023-04-02T11:15:42;6.60;78.30
20171;DHT22;10245;51.344;6.620;2023-04-02T11:18:25;6.60;78.30
20171;DHT22;10245;51.344;6.620;2023-04-02T11:21:00;6.50;77.40
20171;DHT22;10245;51.344;6.620;2023-04-02T11:23:27;6.60;77.70
20171;DHT22;10245;51.344;6.620;2023-04-02T11:25:52;6.70;77.10
20171;DHT22;10245;51.344;6.620;2023-04-02T11:29:11;6.80;76.60
20171;DHT22;10245;51.344;6.620;2023-04-02T11:31:37;6.70;76.90
20171;DHT22;10245;51.344;6.620;2023-04-02T11:34:02;6.60;76.10
20171;DHT22;10245;51.344;6.620;2023-04-02T11:37:00;6.80;76.70
20171;DHT22;10245;51.344;6.620;2023-04-02T11:39:47;6.80;77.60
20171;DHT22;10245;51.344;6.620;2023-04-02T11:42:27;6.90;77.00
20171;DHT22;10245;51.344;6.620;2023-04-02T11:44:57;6.90;76.40
20171;DHT22;10245;51.344;6.620;2023-04-02T11:47:22;7.00;76.30
20171;DHT22;10245;51.344;6.620;2023-04-02T11:50:03;7.00;76.60
20171;DHT22;10245;51.344;6.620;2023-04-02T11:52:31;6.90;75.20
20171;DHT22;10245;51.344;6.620;2023-04-02T11:58:11;7.20;75.80
20171;DHT22;10245;51.344;6.620;2023-04-02T12:04:33;7.20;75.80
20171;DHT22;10245;51.344;6.620;2023-04-02T12:07:33;7.10;74.70
20171;DHT22;10245;51.344;6.620;2023-04-02T12:10:16;7.30;75.00
20171;DHT22;10245;51.344;6.620;2023-04-02T12:12:40;7.30;73.30
20171;DHT22;10245;51.344;6.620;2023-04-02T12:15:06;7.30;75.10
20171;DHT22;10245;51.344;6.620;2023-04-02T12:18:04;7.20;74.80
20171;DHT22;10245;51.344;6.620;2023-04-02T12:20:33;7.00;74.00
20171;DHT22;10245;51.344;6.620;2023-04-02T12:22:58;7.20;74.40
20171;DHT22;10245;51.344;6.620;2023-04-02T12:25:25;7.30;74.80
20171;DHT22;10245;51.344;6.620;2023-04-02T12:28:03;7.50;75.80
20171;DHT22;10245;51.344;6.620;2023-04-02T12:30:39;7.70;75.30
20171;DHT22;10245;51.344;6.620;2023-04-02T12:33:25;7.70;72.80
20171;DHT22;10245;51.344;6.620;2023-04-02T12:35:55;7.50;73.30
20171;DHT22;10245;51.344;6.620;2023-04-02T12:38:23;7.70;73.60
20171;DHT22;10245;51.344;6.620;2023-04-02T12:40:51;7.80;73.40
20171;DHT22;10245;51.344;6.620;2023-04-02T12:43:22;8.00;74.20
20171;DHT22;10245;51.344;6.620;2023-04-02T12:45:51;7.80;72.90
20171;DHT22;10245;51.344;6.620;2023-04-02T12:48:15;8.00;72.70
20171;DHT22;10245;51.344;6.620;2023-04-02T12:50:38;8.10;72.70
20171;DHT22;10245;51.344;6.620;2023-04-02T12:53:02;7.90;72.70
20171;DHT22;10245;51.344;6.620;2023-04-02T12:55:27;8.00;72.50
20171;DHT22;10245;51.344;6.620;2023-04-02T12:57:54;8.00;72.00
20171;DHT22;10245;51.344;6.620;2023-04-02T13:00:33;7.60;71.50
20171;DHT22;10245;51.344;6.620;2023-04-02T13:03:00;7.50;72.00
20171;DHT22;10245;51.344;6.620;2023-04-02T13:05:37;7.40;72.10
20171;DHT22;10245;51.344;6.620;2023-04-02T13:08:03;7.40;72.80
20171;DHT22;10245;51.344;6.620;2023-04-02T13:10:29;7.40;72.40
20171;DHT22;10245;51.344;6.620;2023-04-02T13:12:54;7.50;73.00
20171;DHT22;10245;51.344;6.620;2023-04-02T13:15:21;7.40;72.40
20171;DHT22;10245;51.344;6.620;2023-04-02T13:18:02;7.20;73.00
20171;DHT22;10245;51.344;6.620;2023-04-02T13:20:29;7.10;71.70
20171;DHT22;10245;51.344;6.620;2023-04-02T13:22:54;7.30;72.50
20171;DHT22;10245;51.344;6.620;2023-04-02T13:25:19;7.20;72.40
20171;DHT22;10245;51.344;6.620;2023-04-02T13:27:49;7.20;73.90
20171;DHT22;10245;51.344;6.620;2023-04-02T13:30:20;7.20;74.10
20171;DHT22;10245;51.344;6.620;2023-04-02T13:32:44;7.00;72.30
20171;DHT22;10245;51.344;6.620;2023-04-02T13:35:08;7.10;72.30
20171;DHT22;10245;51.344;6.620;2023-04-02T13:37:31;7.30;74.20
20171;DHT22;10245;51.344;6.620;2023-04-02T13:39:55;7.10;71.60
20171;DHT22;10245;51.344;6.620;2023-04-02T13:42:18;7.30;72.70
20171;DHT22;10245;51.344;6.620;2023-04-02T13:44:43;7.10;72.40
20171;DHT22;10245;51.344;6.620;2023-04-02T13:47:12;7.10;72.20
20171;DHT22;10245;51.344;6.620;2023-04-02T13:49:36;7.00;72.80
20171;DHT22;10245;51.344;6.620;2023-04-02T13:52:00;7.00;72.00
20171;DHT22;10245;51.344;6.620;2023-04-02T13:54:28;7.20;72.70
20171;DHT22;10245;51.344;6.620;2023-04-02T13:56:55;7.00;72.30
20171;DHT22;10245;51.344;6.620;2023-04-02T13:59:19;6.90;72.90
20171;DHT22;10245;51.344;6.620;2023-04-02T14:01:45;6.90;71.90
20171;DHT22;10245;51.344;6.620;2023-04-02T14:04:11;7.00;71.70
20171;DHT22;10245;51.344;6.620;2023-04-02T14:09:53;7.10;70.80
20171;DHT22;10245;51.344;6.620;2023-04-02T14:12:31;6.90;69.50
20171;DHT22;10245;51.344;6.620;2023-04-02T14:15:16;7.00;70.30
20171;DHT22;10245;51.344;6.620;2023-04-02T14:17:56;7.20;70.70
20171;DHT22;10245;51.344;6.620;2023-04-02T14:20:35;7.10;69.70
20171;DHT22;10245;51.344;6.620;2023-04-02T14:23:20;7.40;71.50
20171;DHT22;10245;51.344;6.620;2023-04-02T14:25:56;7.50;71.30
20171;DHT22;10245;51.344;6.620;2023-04-02T14:28:29;7.40;69.10
20171;DHT22;10245;51.344;6.620;2023-04-02T14:31:07;7.60;69.40
20171;DHT22;10245;51.344;6.620;2023-04-02T14:33:41;7.70;69.50
20171;DHT22;10245;51.344;6.620;2023-04-02T14:36:12;7.80;69.10
20171;DHT22;10245;51.344;6.620;2023-04-02T14:38:46;7.70;68.20
20171;DHT22;10245;51.344;6.620;2023-04-02T14:41:17;7.90;69.60
20171;DHT22;10245;51.344;6.620;2023-04-02T14:43:46;7.80;68.00
20171;DHT22;10245;51.344;6.620;2023-04-02T14:46:14;7.50;66.90
20171;DHT22;10245;51.344;6.620;2023-04-02T14:48:45;7.60;67.90
20171;DHT22;10245;51.344;6.620;2023-04-02T14:51:19;7.60;67.60
20171;DHT22;10245;51.344;6.620;2023-04-02T14:53:54;7.70;66.60
20171;DHT22;10245;51.344;6.620;2023-04-02T14:56:23;7.90;66.90
20171;DHT22;10245;51.344;6.620;2023-04-02T14:58:52;7.90;64.70
20171;DHT22;10245;51.344;6.620;2023-04-02T15:01:20;8.40;66.80
20171;DHT22;10245;51.344;6.620;2023-04-02T15:03:53;8.80;66.20
20171;DHT22;10245;51.344;6.620;2023-04-02T15:06:22;8.90;66.60
20171;DHT22;10245;51.344;6.620;2023-04-02T15:08:50;9.00;63.90
20171;DHT22;10245;51.344;6.620;2023-04-02T15:11:32;8.90;64.20
20171;DHT22;10245;51.344;6.620;2023-04-02T15:14:01;9.00;62.60
20171;DHT22;10245;51.344;6.620;2023-04-02T15:16:27;8.50;61.80
20171;DHT22;10245;51.344;6.620;2023-04-02T15:18:56;8.30;62.40
20171;DHT22;10245;51.344;6.620;2023-04-02T15:21:40;8.30;63.40
20171;DHT22;10245;51.344;6.620;2023-04-02T15:24:34;8.30;64.40
20171;DHT22;10245;51.344;6.620;2023-04-02T15:27:14;8.70;64.20
20171;DHT22;10245;51.344;6.620;2023-04-02T15:29:50;8.70;61.90
20171;DHT22;10245;51.344;6.620;2023-04-02T15:32:25;9.00;64.60
20171;DHT22;10245;51.344;6.620;2023-04-02T15:34:56;8.80;61.50
20171;DHT22;10245;51.344;6.620;2023-04-02T15:37:30;8.80;61.60
20171;DHT22;10245;51.344;6.620;2023-04-02T15:40:05;8.80;61.30
20171;DHT22;10245;51.344;6.620;2023-04-02T15:42:40;9.00;60.60
20171;DHT22;10245;51.344;6.620;2023-04-02T15:45:20;9.50;60.50
20171;DHT22;10245;51.344;6.620;2023-04-02T15:48:01;9.20;61.10
20171;DHT22;10245;51.344;6.620;2023-04-02T15:50:50;9.20;60.60
20171;DHT22;10245;51.344;6.620;2023-04-02T15:53:29;10.10;61.00
20171;DHT22;10245;51.344;6.620;2023-04-02T15:56:05;9.40;57.40
20171;DHT22;10245;51.344;6.620;2023-04-02T15:58:42;8.60;61.60
20171;DHT22;10245;51.344;6.620;2023-04-02T16:01:19;8.70;61.10
20171;DHT22;10245;51.344;6.620;2023-04-02T16:03:55;8.60;63.40
20171;DHT22;10245;51.344;6.620;2023-04-02T16:06:29;8.80;64.10
20171;DHT22;10245;51.344;6.620;2023-04-02T16:09:02;8.70;61.40
20171;DHT22;10245;51.344;6.620;2023-04-02T16:11:30;8.60;61.30
20171;DHT22;10245;51.344;6.620;2023-04-02T16:14:00;8.80;61.40
20171;DHT22;10245;51.344;6.620;2023-04-02T16:16:34;8.60;62.00
20171;DHT22;10245;51.344;6.620;2023-04-02T16:19:02;8.50;63.60
20171;DHT22;10245;51.344;6.620;2023-04-02T16:21:44;8.50;62.10